createdAt,value
2018-03-17T00:02:36.268Z,7.43
2018-03-17T00:17:34.550Z,7.73
2018-03-17T00:32:36.577Z,7.60
2018-03-17T00:47:36.904Z,7.17
2018-03-17T01:02:37.395Z,7.10
2018-03-17T01:17:42.232Z,6.57
2018-03-17T01:32:37.412Z,6.40
2018-03-17T01:47:34.734Z,7.77
2018-03-17T02:02:36.824Z,6.90
2018-03-17T02:17:38.010Z,6.20
2018-03-17T02:32:38.240Z,6.10
2018-03-17T02:47:37.037Z,6.70
2018-03-17T03:02:40.229Z,6.40
2018-03-17T03:17:36.432Z,6.63
2018-03-17T03:32:37.249Z,7.00
2018-03-17T03:47:36.560Z,7.30
2018-03-17T04:17:37.594Z,6.83
2018-03-17T04:32:38.980Z,7.73
2018-03-17T05:47:34.342Z,9.70
2018-03-17T06:02:34.950Z,10.53
2018-03-17T06:17:34.752Z,10.00
2018-03-17T06:32:34.660Z,9.37
2018-03-17T06:47:34.092Z,9.10
2018-03-17T07:02:35.139Z,8.13
2018-03-17T07:17:35.153Z,8.90
2018-03-17T07:32:35.171Z,9.33
2018-03-17T07:47:35.083Z,11.60
2018-03-17T08:02:33.931Z,12.50
2018-03-17T08:17:35.374Z,11.83
2018-03-17T08:32:35.776Z,10.60
2018-03-17T08:47:36.200Z,7.87
2018-03-17T09:02:34.650Z,7.00
2018-03-17T09:17:36.429Z,5.60
2018-03-17T09:32:36.698Z,3.70
2018-03-17T09:47:33.966Z,2.37
2018-03-17T10:02:34.912Z,2.20
2018-03-17T10:17:36.709Z,2.60
2018-03-17T10:32:34.290Z,2.17
2018-03-17T10:47:34.613Z,2.93
2018-03-17T11:02:40.249Z,4.67
2018-03-17T11:17:35.067Z,5.40
2018-03-17T11:32:34.818Z,3.80
2018-03-17T11:47:34.812Z,4.23
2018-03-17T12:02:34.465Z,2.90
2018-03-17T12:17:37.266Z,3.40
2018-03-17T12:32:35.085Z,2.67
2018-03-17T12:47:35.173Z,2.60
2018-03-17T13:02:34.684Z,3.20
2018-03-17T13:17:34.487Z,3.00
2018-03-17T13:32:46.200Z,2.73
2018-03-17T13:47:33.774Z,3.27
2018-03-17T14:02:35.098Z,2.30
2018-03-17T14:17:34.613Z,2.90
2018-03-17T14:32:34.848Z,2.90
2018-03-17T14:47:34.567Z,2.60
2018-03-17T15:02:35.188Z,2.90
2018-03-17T15:17:35.111Z,3.93
2018-03-17T15:32:35.006Z,2.80
2018-03-17T15:47:35.046Z,2.83
2018-03-17T16:02:34.562Z,3.20
2018-03-17T16:17:34.337Z,2.90
2018-03-17T16:32:35.385Z,3.13
2018-03-17T16:47:35.253Z,3.07
2018-03-17T17:02:35.707Z,4.07
2018-03-17T17:17:34.470Z,3.00
2018-03-17T17:32:34.398Z,3.40
2018-03-17T17:47:36.296Z,4.17
2018-03-17T18:02:34.940Z,3.67
2018-03-17T18:17:36.991Z,3.53
2018-03-17T18:32:36.683Z,3.60
2018-03-17T18:47:39.591Z,3.87
2018-03-17T19:02:43.561Z,3.77
2018-03-17T19:17:37.831Z,4.30
2018-03-17T19:32:35.086Z,3.70
2018-03-17T20:02:38.956Z,4.33
2018-03-17T20:17:34.215Z,3.93
2018-03-17T20:32:38.543Z,4.00
2018-03-17T20:47:49.849Z,4.07
2018-03-17T21:02:37.417Z,4.60
2018-03-17T21:17:43.870Z,4.03
2018-03-17T21:32:37.540Z,4.00
2018-03-17T21:47:36.259Z,5.03
2018-03-17T22:02:36.966Z,5.63
2018-03-17T22:32:47.292Z,5.23
2018-03-17T22:47:34.618Z,5.83
2018-03-17T23:02:36.038Z,8.30
2018-03-17T23:17:34.906Z,7.93
2018-03-17T23:32:34.895Z,9.80
2018-03-17T23:47:34.808Z,11.67
